sensor_id;sensor_type;location;lat;lon;timestamp;pressure;altitude;pressure_sealevel;temperature;humidity
63033;BME280;49121;38.932;-9.018;2023-05-03T00:01:22;111992.50;;;-145.11;52.35
63033;BME280;49121;38.932;-9.018;2023-05-03T00:03:23;111992.50;;;-145.11;52.71
63033;BME280;49121;38.932;-9.018;2023-05-03T00:05:24;111992.50;;;-145.11;52.83
63033;BME280;49121;38.932;-9.018;2023-05-03T00:07:25;111992.50;;;-145.11;52.38
63033;BME280;49121;38.932;-9.018;2023-05-03T00:09:25;111992.50;;;-145.11;52.29
63033;BME280;49121;38.932;-9.018;2023-05-03T00:11:26;111992.50;;;-145.11;52.10
63033;BME280;49121;38.932;-9.018;2023-05-03T00:13:27;111992.50;;;-145.11;51.91
63033;BME280;49121;38.932;-9.018;2023-05-03T00:15:27;111992.50;;;-145.11;51.91
63033;BME280;49121;38.932;-9.018;2023-05-03T00:17:27;111992.50;;;-145.11;52.05
63033;BME280;49121;38.932;-9.018;2023-05-03T00:19:28;111992.50;;;-145.11;51.64
63033;BME280;49121;38.932;-9.018;2023-05-03T00:21:32;111992.50;;;-145.11;51.36
63033;BME280;49121;38.932;-9.018;2023-05-03T00:23:33;111992.50;;;-145.11;51.42
63033;BME280;49121;38.932;-9.018;2023-05-03T00:25:33;111992.50;;;-145.11;50.88
63033;BME280;49121;38.932;-9.018;2023-05-03T00:27:34;111992.50;;;-145.11;51.48
63033;BME280;49121;38.932;-9.018;2023-05-03T00:29:34;111992.50;;;-145.11;52.07
63033;BME280;49121;38.932;-9.018;2023-05-03T00:31:35;111992.50;;;-145.11;52.31
63033;BME280;49121;38.932;-9.018;2023-05-03T00:33:36;111992.50;;;-145.11;52.77
63033;BME280;49121;38.932;-9.018;2023-05-03T00:35:36;111992.50;;;-145.11;53.20
63033;BME280;49121;38.932;-9.018;2023-05-03T00:37:37;111992.50;;;-145.11;53.88
63033;BME280;49121;38.932;-9.018;2023-05-03T00:39:37;111992.50;;;-145.11;54.58
63033;BME280;49121;38.932;-9.018;2023-05-03T00:41:59;111992.50;;;-145.11;54.94
63033;BME280;49121;38.932;-9.018;2023-05-03T00:44:19;111992.50;;;-145.11;55.10
63033;BME280;49121;38.932;-9.018;2023-05-03T00:46:20;111992.50;;;-145.11;55.14
63033;BME280;49121;38.932;-9.018;2023-05-03T00:52:59;111992.50;;;-145.11;55.99
63033;BME280;49121;38.932;-9.018;2023-05-03T00:54:59;111992.50;;;-145.11;56.30
63033;BME280;49121;38.932;-9.018;2023-05-03T00:57:00;111992.50;;;-145.11;56.75
63033;BME280;49121;38.932;-9.018;2023-05-03T00:59:04;111992.50;;;-145.11;56.64
63033;BME280;49121;38.932;-9.018;2023-05-03T01:01:05;111992.50;;;-145.11;56.69
63033;BME280;49121;38.932;-9.018;2023-05-03T01:03:09;111992.50;;;-145.11;56.62
63033;BME280;49121;38.932;-9.018;2023-05-03T01:05:09;111992.50;;;-145.11;55.74
63033;BME280;49121;38.932;-9.018;2023-05-03T01:09:48;111992.50;;;-145.11;56.00
63033;BME280;49121;38.932;-9.018;2023-05-03T01:13:59;111992.50;;;-145.11;56.70
63033;BME280;49121;38.932;-9.018;2023-05-03T01:18:11;111992.50;;;-145.11;57.08
63033;BME280;49121;38.932;-9.018;2023-05-03T01:20:15;111992.50;;;-145.11;57.59
63033;BME280;49121;38.932;-9.018;2023-05-03T01:22:30;111992.50;;;-145.11;57.42
63033;BME280;49121;38.932;-9.018;2023-05-03T01:24:31;111992.50;;;-145.11;57.86
63033;BME280;49121;38.932;-9.018;2023-05-03T01:26:35;111992.50;;;-145.11;58.18
63033;BME280;49121;38.932;-9.018;2023-05-03T01:28:36;111992.50;;;-145.11;58.16
63033;BME280;49121;38.932;-9.018;2023-05-03T01:37:31;111992.50;;;-145.11;58.98
63033;BME280;49121;38.932;-9.018;2023-05-03T01:39:37;111992.50;;;-145.11;59.23
63033;BME280;49121;38.932;-9.018;2023-05-03T01:41:41;111992.50;;;-145.11;59.37
63033;BME280;49121;38.932;-9.018;2023-05-03T01:43:42;111992.50;;;-145.11;59.43
63033;BME280;49121;38.932;-9.018;2023-05-03T01:45:43;111992.50;;;-145.11;59.28
63033;BME280;49121;38.932;-9.018;2023-05-03T01:47:44;111992.50;;;-145.11;59.39
63033;BME280;49121;38.932;-9.018;2023-05-03T01:49:45;111992.50;;;-145.11;59.59
63033;BME280;49121;38.932;-9.018;2023-05-03T01:51:45;111992.50;;;-145.11;59.73
63033;BME280;49121;38.932;-9.018;2023-05-03T01:53:46;111992.50;;;-145.11;59.73
63033;BME280;49121;38.932;-9.018;2023-05-03T01:55:46;111992.50;;;-145.11;60.29
63033;BME280;49121;38.932;-9.018;2023-05-03T01:57:47;111992.50;;;-145.11;60.26
63033;BME280;49121;38.932;-9.018;2023-05-03T01:59:47;111992.50;;;-145.11;60.60
63033;BME280;49121;38.932;-9.018;2023-05-03T02:01:48;111992.50;;;-145.11;60.63
63033;BME280;49121;38.932;-9.018;2023-05-03T02:03:48;111992.50;;;-145.11;60.90
63033;BME280;49121;38.932;-9.018;2023-05-03T02:05:50;111992.50;;;-145.11;61.02
63033;BME280;49121;38.932;-9.018;2023-05-03T02:07:50;111992.50;;;-145.11;61.24
63033;BME280;49121;38.932;-9.018;2023-05-03T02:09:51;111992.50;;;-145.11;61.85
63033;BME280;49121;38.932;-9.018;2023-05-03T02:11:51;111992.50;;;-145.11;61.95
63033;BME280;49121;38.932;-9.018;2023-05-03T02:13:52;111992.50;;;-145.11;62.96
63033;BME280;49121;38.932;-9.018;2023-05-03T02:15:52;111992.50;;;-145.11;62.83
63033;BME280;49121;38.932;-9.018;2023-05-03T02:17:53;111992.50;;;-145.11;63.28
63033;BME280;49121;38.932;-9.018;2023-05-03T02:19:54;111992.50;;;-145.11;62.87
63033;BME280;49121;38.932;-9.018;2023-05-03T02:21:55;111992.50;;;-145.11;62.52
63033;BME280;49121;38.932;-9.018;2023-05-03T02:23:57;111992.50;;;-145.11;61.94
63033;BME280;49121;38.932;-9.018;2023-05-03T02:25:59;111992.50;;;-145.11;60.74
63033;BME280;49121;38.932;-9.018;2023-05-03T02:27:59;111992.50;;;-145.11;60.80
63033;BME280;49121;38.932;-9.018;2023-05-03T02:30:00;111992.50;;;-145.11;59.37
63033;BME280;49121;38.932;-9.018;2023-05-03T02:32:01;111992.50;;;-145.11;58.49
63033;BME280;49121;38.932;-9.018;2023-05-03T02:34:04;111992.50;;;-145.11;58.33
63033;BME280;49121;38.932;-9.018;2023-05-03T02:36:05;111992.50;;;-145.11;58.18
63033;BME280;49121;38.932;-9.018;2023-05-03T02:38:06;111992.50;;;-145.11;58.38
63033;BME280;49121;38.932;-9.018;2023-05-03T02:40:06;111992.50;;;-145.11;58.46
63033;BME280;49121;38.932;-9.018;2023-05-03T02:42:08;111992.50;;;-145.11;58.40
63033;BME280;49121;38.932;-9.018;2023-05-03T02:44:09;111992.50;;;-145.11;58.38
63033;BME280;49121;38.932;-9.018;2023-05-03T02:46:11;111992.50;;;-145.11;58.77
63033;BME280;49121;38.932;-9.018;2023-05-03T02:48:11;111992.50;;;-145.11;58.73
63033;BME280;49121;38.932;-9.018;2023-05-03T02:50:16;111992.50;;;-145.11;58.85
63033;BME280;49121;38.932;-9.018;2023-05-03T02:52:16;111992.50;;;-145.11;59.04
63033;BME280;49121;38.932;-9.018;2023-05-03T02:54:17;111992.50;;;-145.11;59.25
63033;BME280;49121;38.932;-9.018;2023-05-03T02:56:34;111992.50;;;-145.11;58.50
63033;BME280;49121;38.932;-9.018;2023-05-03T02:58:34;111992.50;;;-145.11;58.12
63033;BME280;49121;38.932;-9.018;2023-05-03T03:00:37;111992.50;;;-145.11;57.38
63033;BME280;49121;38.932;-9.018;2023-05-03T03:02:37;111992.50;;;-145.11;55.85
63033;BME280;49121;38.932;-9.018;2023-05-03T03:04:38;111992.50;;;-145.11;55.46
63033;BME280;49121;38.932;-9.018;2023-05-03T03:06:39;111992.50;;;-145.11;55.60
63033;BME280;49121;38.932;-9.018;2023-05-03T03:08:39;111992.50;;;-145.11;56.36
63033;BME280;49121;38.932;-9.018;2023-05-03T03:10:41;111992.50;;;-145.11;56.49
63033;BME280;49121;38.932;-9.018;2023-05-03T03:12:44;111992.50;;;-145.11;56.72
63033;BME280;49121;38.932;-9.018;2023-05-03T03:14:58;111992.50;;;-145.11;57.00
63033;BME280;49121;38.932;-9.018;2023-05-03T03:19:20;111992.50;;;-145.11;57.54
63033;BME280;49121;38.932;-9.018;2023-05-03T03:21:20;111992.50;;;-145.11;57.79
63033;BME280;49121;38.932;-9.018;2023-05-03T03:23:21;111992.50;;;-145.11;57.93
63033;BME280;49121;38.932;-9.018;2023-05-03T03:25:21;111992.50;;;-145.11;57.78
63033;BME280;49121;38.932;-9.018;2023-05-03T03:27:23;111992.50;;;-145.11;57.50
63033;BME280;49121;38.932;-9.018;2023-05-03T03:29:23;111992.50;;;-145.11;57.36
63033;BME280;49121;38.932;-9.018;2023-05-03T03:31:24;111992.50;;;-145.11;57.13
63033;BME280;49121;38.932;-9.018;2023-05-03T03:33:39;111992.50;;;-145.11;57.10
63033;BME280;49121;38.932;-9.018;2023-05-03T03:35:45;111992.50;;;-145.11;57.08
63033;BME280;49121;38.932;-9.018;2023-05-03T03:37:46;111992.50;;;-145.11;57.10
63033;BME280;49121;38.932;-9.018;2023-05-03T03:39:47;111992.50;;;-145.11;56.80
63033;BME280;49121;38.932;-9.018;2023-05-03T03:41:48;111992.50;;;-145.11;56.60
63033;BME280;49121;38.932;-9.018;2023-05-03T03:43:48;111992.50;;;-145.11;55.53
63033;BME280;49121;38.932;-9.018;2023-05-03T03:45:52;111992.50;;;-145.11;55.32
63033;BME280;49121;38.932;-9.018;2023-05-03T03:47:53;111992.50;;;-145.11;55.18
63033;BME280;49121;38.932;-9.018;2023-05-03T03:49:56;111992.50;;;-145.11;55.06
63033;BME280;49121;38.932;-9.018;2023-05-03T03:52:03;111992.50;;;-145.11;54.91
63033;BME280;49121;38.932;-9.018;2023-05-03T03:54:07;111992.50;;;-145.11;54.72
63033;BME280;49121;38.932;-9.018;2023-05-03T03:56:11;111992.50;;;-145.11;54.75
63033;BME280;49121;38.932;-9.018;2023-05-03T03:58:12;111992.50;;;-145.11;54.79
63033;BME280;49121;38.932;-9.018;2023-05-03T04:00:12;111992.50;;;-145.11;54.60
63033;BME280;49121;38.932;-9.018;2023-05-03T04:02:17;111992.50;;;-145.11;55.21
63033;BME280;49121;38.932;-9.018;2023-05-03T04:04:17;111992.50;;;-145.11;55.90
63033;BME280;49121;38.932;-9.018;2023-05-03T04:06:18;111992.50;;;-145.11;56.35
63033;BME280;49121;38.932;-9.018;2023-05-03T04:08:20;111992.50;;;-145.11;56.52
63033;BME280;49121;38.932;-9.018;2023-05-03T04:10:20;111992.50;;;-145.11;56.44
63033;BME280;49121;38.932;-9.018;2023-05-03T04:12:22;111992.50;;;-145.11;55.53
63033;BME280;49121;38.932;-9.018;2023-05-03T04:14:22;111992.50;;;-145.11;55.13
63033;BME280;49121;38.932;-9.018;2023-05-03T04:16:23;111992.50;;;-145.11;54.86
63033;BME280;49121;38.932;-9.018;2023-05-03T04:18:24;111992.50;;;-145.11;54.84
63033;BME280;49121;38.932;-9.018;2023-05-03T04:20:26;111992.50;;;-145.11;54.52
63033;BME280;49121;38.932;-9.018;2023-05-03T04:22:27;111992.50;;;-145.11;53.77
63033;BME280;49121;38.932;-9.018;2023-05-03T04:24:30;111992.50;;;-145.11;53.67
63033;BME280;49121;38.932;-9.018;2023-05-03T04:26:31;111992.50;;;-145.11;53.75
63033;BME280;49121;38.932;-9.018;2023-05-03T04:28:37;111992.50;;;-145.11;54.75
63033;BME280;49121;38.932;-9.018;2023-05-03T04:30:54;111992.50;;;-145.11;54.95
63033;BME280;49121;38.932;-9.018;2023-05-03T04:32:59;111992.50;;;-145.11;55.47
63033;BME280;49121;38.932;-9.018;2023-05-03T04:37:22;111992.50;;;-145.11;55.23
63033;BME280;49121;38.932;-9.018;2023-05-03T04:39:23;111992.50;;;-145.11;55.21
63033;BME280;49121;38.932;-9.018;2023-05-03T04:41:42;111992.50;;;-145.11;55.50
63033;BME280;49121;38.932;-9.018;2023-05-03T04:43:43;111992.50;;;-145.11;55.61
63033;BME280;49121;38.932;-9.018;2023-05-03T04:45:44;111992.50;;;-145.11;56.33
63033;BME280;49121;38.932;-9.018;2023-05-03T04:47:50;111992.50;;;-145.11;57.00
63033;BME280;49121;38.932;-9.018;2023-05-03T04:49:50;111992.50;;;-145.11;58.29
63033;BME280;49121;38.932;-9.018;2023-05-03T04:52:09;111992.50;;;-145.11;58.56
63033;BME280;49121;38.932;-9.018;2023-05-03T04:54:10;111992.50;;;-145.11;61.21
63033;BME280;49121;38.932;-9.018;2023-05-03T04:56:11;111992.50;;;-145.11;62.32
63033;BME280;49121;38.932;-9.018;2023-05-03T04:58:30;111992.50;;;-145.11;62.37
63033;BME280;49121;38.932;-9.018;2023-05-03T05:00:49;111992.50;;;-145.11;62.78
63033;BME280;49121;38.932;-9.018;2023-05-03T05:02:57;111992.50;;;-145.11;63.94
63033;BME280;49121;38.932;-9.018;2023-05-03T05:05:01;111992.50;;;-145.11;64.35
63033;BME280;49121;38.932;-9.018;2023-05-03T05:07:02;111992.50;;;-145.11;65.47
63033;BME280;49121;38.932;-9.018;2023-05-03T05:09:05;111992.50;;;-145.11;65.45
63033;BME280;49121;38.932;-9.018;2023-05-03T05:11:06;111992.50;;;-145.11;65.38
63033;BME280;49121;38.932;-9.018;2023-05-03T05:13:08;111992.50;;;-145.11;66.88
63033;BME280;49121;38.932;-9.018;2023-05-03T05:15:09;111992.50;;;-145.11;67.82
63033;BME280;49121;38.932;-9.018;2023-05-03T05:19:29;111992.50;;;-145.11;70.79
63033;BME280;49121;38.932;-9.018;2023-05-03T05:21:30;111992.50;;;-145.11;71.05
63033;BME280;49121;38.932;-9.018;2023-05-03T05:23:31;111992.50;;;-145.11;70.49
63033;BME280;49121;38.932;-9.018;2023-05-03T05:25:36;111992.50;;;-145.11;70.44
63033;BME280;49121;38.932;-9.018;2023-05-03T05:27:37;111992.50;;;-145.11;69.50
63033;BME280;49121;38.932;-9.018;2023-05-03T05:29:38;111992.50;;;-145.11;68.99
63033;BME280;49121;38.932;-9.018;2023-05-03T05:31:39;111992.50;;;-145.11;68.78
63033;BME280;49121;38.932;-9.018;2023-05-03T05:33:41;111992.50;;;-145.11;67.79
63033;BME280;49121;38.932;-9.018;2023-05-03T05:35:42;111992.50;;;-145.11;66.88
63033;BME280;49121;38.932;-9.018;2023-05-03T05:37:44;111992.50;;;-145.11;65.97
63033;BME280;49121;38.932;-9.018;2023-05-03T05:39:45;111992.50;;;-145.11;65.77
63033;BME280;49121;38.932;-9.018;2023-05-03T05:41:47;111992.50;;;-145.11;66.04
63033;BME280;49121;38.932;-9.018;2023-05-03T05:43:48;111992.50;;;-145.11;65.97
63033;BME280;49121;38.932;-9.018;2023-05-03T05:45:48;111992.50;;;-145.11;65.90
63033;BME280;49121;38.932;-9.018;2023-05-03T05:48:07;111992.50;;;-145.11;66.69
63033;BME280;49121;38.932;-9.018;2023-05-03T05:50:26;111992.50;;;-145.11;67.10
63033;BME280;49121;38.932;-9.018;2023-05-03T05:52:33;111992.50;;;-145.11;66.94
63033;BME280;49121;38.932;-9.018;2023-05-03T05:54:34;111992.50;;;-145.11;66.74
63033;BME280;49121;38.932;-9.018;2023-05-03T05:56:36;111992.50;;;-145.11;67.37
63033;BME280;49121;38.932;-9.018;2023-05-03T05:58:37;111992.50;;;-145.11;67.11
63033;BME280;49121;38.932;-9.018;2023-05-03T06:00:38;111992.50;;;-145.11;67.37
63033;BME280;49121;38.932;-9.018;2023-05-03T06:02:57;111992.50;;;-145.11;66.81
63033;BME280;49121;38.932;-9.018;2023-05-03T06:07:35;111992.50;;;-145.11;66.65
63033;BME280;49121;38.932;-9.018;2023-05-03T06:09:36;111992.50;;;-145.11;66.30
63033;BME280;49121;38.932;-9.018;2023-05-03T06:11:38;111992.50;;;-145.11;66.46
63033;BME280;49121;38.932;-9.018;2023-05-03T06:13:39;111992.50;;;-145.11;66.78
63033;BME280;49121;38.932;-9.018;2023-05-03T06:15:42;111992.50;;;-145.11;67.06
63033;BME280;49121;38.932;-9.018;2023-05-03T06:17:43;111992.50;;;-145.11;67.05
63033;BME280;49121;38.932;-9.018;2023-05-03T06:19:44;111992.50;;;-145.11;67.04
63033;BME280;49121;38.932;-9.018;2023-05-03T06:21:45;111992.50;;;-145.11;66.90
63033;BME280;49121;38.932;-9.018;2023-05-03T06:23:45;111992.50;;;-145.11;66.85
63033;BME280;49121;38.932;-9.018;2023-05-03T06:25:46;111992.50;;;-145.11;67.38
63033;BME280;49121;38.932;-9.018;2023-05-03T06:27:47;111992.50;;;-145.11;67.49
63033;BME280;49121;38.932;-9.018;2023-05-03T06:29:47;111992.50;;;-145.11;67.41
63033;BME280;49121;38.932;-9.018;2023-05-03T06:31:49;111992.50;;;-145.11;67.44
63033;BME280;49121;38.932;-9.018;2023-05-03T06:33:49;111992.50;;;-145.11;67.41
63033;BME280;49121;38.932;-9.018;2023-05-03T06:35:50;111992.50;;;-145.11;67.43
63033;BME280;49121;38.932;-9.018;2023-05-03T06:37:52;111992.50;;;-145.11;67.43
63033;BME280;49121;38.932;-9.018;2023-05-03T06:39:52;111992.50;;;-145.11;67.26
63033;BME280;49121;38.932;-9.018;2023-05-03T06:41:53;111992.50;;;-145.11;67.77
63033;BME280;49121;38.932;-9.018;2023-05-03T06:44:08;111992.50;;;-145.11;68.62
63033;BME280;49121;38.932;-9.018;2023-05-03T06:46:09;111992.50;;;-145.11;68.42
63033;BME280;49121;38.932;-9.018;2023-05-03T06:48:12;111992.50;;;-145.11;69.28
63033;BME280;49121;38.932;-9.018;2023-05-03T06:50:12;111992.50;;;-145.11;68.21
63033;BME280;49121;38.932;-9.018;2023-05-03T06:52:13;111992.50;;;-145.11;66.60
63033;BME280;49121;38.932;-9.018;2023-05-03T06:54:14;111992.50;;;-145.11;64.33
63033;BME280;49121;38.932;-9.018;2023-05-03T06:56:14;111992.50;;;-145.11;63.29
63033;BME280;49121;38.932;-9.018;2023-05-03T06:58:15;111992.50;;;-145.11;63.46
63033;BME280;49121;38.932;-9.018;2023-05-03T07:00:34;111992.50;;;-145.11;63.75
63033;BME280;49121;38.932;-9.018;2023-05-03T07:02:53;111992.50;;;-145.11;63.17
63033;BME280;49121;38.932;-9.018;2023-05-03T07:04:53;111992.50;;;-145.11;62.80
63033;BME280;49121;38.932;-9.018;2023-05-03T07:07:12;111992.50;;;-145.11;62.63
63033;BME280;49121;38.932;-9.018;2023-05-03T07:09:14;111992.50;;;-145.11;61.32
63033;BME280;49121;38.932;-9.018;2023-05-03T07:11:15;111992.50;;;-145.11;59.17
63033;BME280;49121;38.932;-9.018;2023-05-03T07:13:16;111992.50;;;-145.11;57.15
63033;BME280;49121;38.932;-9.018;2023-05-03T07:15:16;111992.50;;;-145.11;52.44
63033;BME280;49121;38.932;-9.018;2023-05-03T07:17:16;111992.50;;;-145.11;52.05
63033;BME280;49121;38.932;-9.018;2023-05-03T07:19:17;111992.50;;;-145.11;50.20
63033;BME280;49121;38.932;-9.018;2023-05-03T07:21:17;111992.50;;;-145.11;48.40
63033;BME280;49121;38.932;-9.018;2023-05-03T07:23:36;111992.50;;;-145.11;46.82
63033;BME280;49121;38.932;-9.018;2023-05-03T07:25:37;111992.50;;;-145.11;46.16
63033;BME280;49121;38.932;-9.018;2023-05-03T07:27:40;111992.50;;;-145.11;47.21
63033;BME280;49121;38.932;-9.018;2023-05-03T07:32:00;111992.50;;;-145.11;46.67
63033;BME280;49121;38.932;-9.018;2023-05-03T07:34:01;111992.50;;;-145.11;47.28
63033;BME280;49121;38.932;-9.018;2023-05-03T07:36:02;111992.50;;;-145.11;46.51
63033;BME280;49121;38.932;-9.018;2023-05-03T07:38:02;111992.50;;;-145.11;44.71
63033;BME280;49121;38.932;-9.018;2023-05-03T07:40:04;111992.50;;;-145.11;42.59
63033;BME280;49121;38.932;-9.018;2023-05-03T07:42:06;111992.50;;;-145.11;41.92
63033;BME280;49121;38.932;-9.018;2023-05-03T07:44:07;111992.50;;;-145.11;40.79
63033;BME280;49121;38.932;-9.018;2023-05-03T07:46:08;111992.50;;;-145.11;41.89
63033;BME280;49121;38.932;-9.018;2023-05-03T07:48:08;111992.50;;;-145.11;43.50
63033;BME280;49121;38.932;-9.018;2023-05-03T07:52:47;111992.50;;;-145.11;43.32
63033;BME280;49121;38.932;-9.018;2023-05-03T07:55:09;111992.50;;;-145.11;41.42
63033;BME280;49121;38.932;-9.018;2023-05-03T07:57:10;111992.50;;;-145.11;42.41
63033;BME280;49121;38.932;-9.018;2023-05-03T07:59:11;111992.50;;;-145.11;42.67
63033;BME280;49121;38.932;-9.018;2023-05-03T08:01:12;111992.50;;;-145.11;44.08
63033;BME280;49121;38.932;-9.018;2023-05-03T08:03:12;111992.50;;;-145.11;44.99
63033;BME280;49121;38.932;-9.018;2023-05-03T08:05:13;111992.50;;;-145.11;45.09
63033;BME280;49121;38.932;-9.018;2023-05-03T08:07:13;111992.50;;;-145.11;45.50
63033;BME280;49121;38.932;-9.018;2023-05-03T08:11:52;111992.50;;;-145.11;45.20
63033;BME280;49121;38.932;-9.018;2023-05-03T08:13:52;111992.50;;;-145.11;45.50
63033;BME280;49121;38.932;-9.018;2023-05-03T08:15:52;111992.50;;;-145.11;45.68
63033;BME280;49121;38.932;-9.018;2023-05-03T08:17:53;111992.50;;;-145.11;45.51
63033;BME280;49121;38.932;-9.018;2023-05-03T08:19:54;111992.50;;;-145.11;44.30
63033;BME280;49121;38.932;-9.018;2023-05-03T08:21:54;111992.50;;;-145.11;43.08
63033;BME280;49121;38.932;-9.018;2023-05-03T08:23:55;111992.50;;;-145.11;42.22
63033;BME280;49121;38.932;-9.018;2023-05-03T08:25:56;111992.50;;;-145.11;42.57
63033;BME280;49121;38.932;-9.018;2023-05-03T08:27:57;111992.50;;;-145.11;41.44
63033;BME280;49121;38.932;-9.018;2023-05-03T08:29:57;111992.50;;;-145.11;41.45
63033;BME280;49121;38.932;-9.018;2023-05-03T08:31:59;111992.50;;;-145.11;39.77
63033;BME280;49121;38.932;-9.018;2023-05-03T08:34:01;111992.50;;;-145.11;39.03
63033;BME280;49121;38.932;-9.018;2023-05-03T08:36:03;111992.50;;;-145.11;37.25
63033;BME280;49121;38.932;-9.018;2023-05-03T08:38:03;111992.50;;;-145.11;36.74
63033;BME280;49121;38.932;-9.018;2023-05-03T08:40:05;111992.50;;;-145.11;37.16
63033;BME280;49121;38.932;-9.018;2023-05-03T08:42:06;111992.50;;;-145.11;36.17
63033;BME280;49121;38.932;-9.018;2023-05-03T08:44:07;111992.50;;;-145.11;35.56
63033;BME280;49121;38.932;-9.018;2023-05-03T08:46:10;111992.50;;;-145.11;34.61
63033;BME280;49121;38.932;-9.018;2023-05-03T08:48:12;111992.50;;;-145.11;34.64
63033;BME280;49121;38.932;-9.018;2023-05-03T08:50:14;111992.50;;;-145.11;35.61
63033;BME280;49121;38.932;-9.018;2023-05-03T08:52:14;111992.50;;;-145.11;37.82
63033;BME280;49121;38.932;-9.018;2023-05-03T08:54:17;111992.50;;;-145.11;39.11
63033;BME280;49121;38.932;-9.018;2023-05-03T08:56:30;111992.50;;;-145.11;40.76
63033;BME280;49121;38.932;-9.018;2023-05-03T08:58:35;111992.50;;;-145.11;41.00
63033;BME280;49121;38.932;-9.018;2023-05-03T09:00:37;111992.50;;;-145.11;41.41
63033;BME280;49121;38.932;-9.018;2023-05-03T09:02:38;111992.50;;;-145.11;39.24
63033;BME280;49121;38.932;-9.018;2023-05-03T09:04:39;111992.50;;;-145.11;39.22
63033;BME280;49121;38.932;-9.018;2023-05-03T09:06:39;111992.50;;;-145.11;38.76
63033;BME280;49121;38.932;-9.018;2023-05-03T09:08:43;111992.50;;;-145.11;37.88
63033;BME280;49121;38.932;-9.018;2023-05-03T09:10:44;111992.50;;;-145.11;36.76
63033;BME280;49121;38.932;-9.018;2023-05-03T09:12:44;111992.50;;;-145.11;37.06
63033;BME280;49121;38.932;-9.018;2023-05-03T09:14:45;111992.50;;;-145.11;35.09
63033;BME280;49121;38.932;-9.018;2023-05-03T09:16:47;111992.50;;;-145.11;35.64
63033;BME280;49121;38.932;-9.018;2023-05-03T09:19:01;111992.50;;;-145.11;34.73
63033;BME280;49121;38.932;-9.018;2023-05-03T09:21:02;111992.50;;;-145.11;35.66
63033;BME280;49121;38.932;-9.018;2023-05-03T09:23:03;111992.50;;;-145.11;35.52
63033;BME280;49121;38.932;-9.018;2023-05-03T09:25:03;111992.50;;;-145.11;35.96
63033;BME280;49121;38.932;-9.018;2023-05-03T09:27:16;111992.50;;;-145.11;36.04
63033;BME280;49121;38.932;-9.018;2023-05-03T09:29:30;111992.50;;;-145.11;35.52
63033;BME280;49121;38.932;-9.018;2023-05-03T09:34:19;111992.50;;;-145.11;36.96
63033;BME280;49121;38.932;-9.018;2023-05-03T09:36:20;111992.50;;;-145.11;36.87
63033;BME280;49121;38.932;-9.018;2023-05-03T09:38:28;111992.50;;;-145.11;37.44
63033;BME280;49121;38.932;-9.018;2023-05-03T09:40:30;111992.50;;;-145.11;36.88
63033;BME280;49121;38.932;-9.018;2023-05-03T09:42:30;111992.50;;;-145.11;37.70
63033;BME280;49121;38.932;-9.018;2023-05-03T09:44:49;111992.50;;;-145.11;37.85
63033;BME280;49121;38.932;-9.018;2023-05-03T09:47:03;111992.50;;;-145.11;36.32
63033;BME280;49121;38.932;-9.018;2023-05-03T09:49:05;111992.50;;;-145.11;36.10
63033;BME280;49121;38.932;-9.018;2023-05-03T09:51:06;111992.50;;;-145.11;35.12
63033;BME280;49121;38.932;-9.018;2023-05-03T09:53:07;111992.50;;;-145.11;34.88
63033;BME280;49121;38.932;-9.018;2023-05-03T09:55:07;111992.50;;;-145.11;33.36
63033;BME280;49121;38.932;-9.018;2023-05-03T09:57:08;111992.50;;;-145.11;31.66
63033;BME280;49121;38.932;-9.018;2023-05-03T09:59:09;111992.50;;;-145.11;30.66
63033;BME280;49121;38.932;-9.018;2023-05-03T10:01:09;111992.50;;;-145.11;30.65
63033;BME280;49121;38.932;-9.018;2023-05-03T10:03:11;111992.50;;;-145.11;29.94
63033;BME280;49121;38.932;-9.018;2023-05-03T10:05:12;111992.50;;;-145.11;30.19
63033;BME280;49121;38.932;-9.018;2023-05-03T10:07:16;111992.50;;;-145.11;30.98
63033;BME280;49121;38.932;-9.018;2023-05-03T10:11:20;111992.50;;;-145.11;31.59
63033;BME280;49121;38.932;-9.018;2023-05-03T10:13:23;111992.50;;;-145.11;31.62
63033;BME280;49121;38.932;-9.018;2023-05-03T10:17:44;111992.50;;;-145.11;31.08
63033;BME280;49121;38.932;-9.018;2023-05-03T10:22:06;111992.50;;;-145.11;30.24
63033;BME280;49121;38.932;-9.018;2023-05-03T10:24:14;111992.50;;;-145.11;29.58
63033;BME280;49121;38.932;-9.018;2023-05-03T10:26:15;111992.50;;;-145.11;29.71
63033;BME280;49121;38.932;-9.018;2023-05-03T10:28:15;111992.50;;;-145.11;29.56
63033;BME280;49121;38.932;-9.018;2023-05-03T10:32:33;111992.50;;;-145.11;29.95
63033;BME280;49121;38.932;-9.018;2023-05-03T10:34:35;111992.50;;;-145.11;30.60
63033;BME280;49121;38.932;-9.018;2023-05-03T10:36:41;111992.50;;;-145.11;30.56
63033;BME280;49121;38.932;-9.018;2023-05-03T10:38:43;111992.50;;;-145.11;30.81
63033;BME280;49121;38.932;-9.018;2023-05-03T10:40:44;111992.50;;;-145.11;31.31
63033;BME280;49121;38.932;-9.018;2023-05-03T10:42:45;111992.50;;;-145.11;31.18
63033;BME280;49121;38.932;-9.018;2023-05-03T10:44:50;111992.50;;;-145.11;30.60
63033;BME280;49121;38.932;-9.018;2023-05-03T10:46:52;111992.50;;;-145.11;30.67
63033;BME280;49121;38.932;-9.018;2023-05-03T10:49:13;111992.50;;;-145.11;30.29
63033;BME280;49121;38.932;-9.018;2023-05-03T10:51:29;111992.50;;;-145.11;29.94
63033;BME280;49121;38.932;-9.018;2023-05-03T10:53:36;111992.50;;;-145.11;30.52
63033;BME280;49121;38.932;-9.018;2023-05-03T10:55:36;111992.50;;;-145.11;30.52
63033;BME280;49121;38.932;-9.018;2023-05-03T10:57:38;111992.50;;;-145.11;30.84
63033;BME280;49121;38.932;-9.018;2023-05-03T10:59:45;111992.50;;;-145.11;31.01
63033;BME280;49121;38.932;-9.018;2023-05-03T11:06:37;111992.50;;;-145.11;32.49
63033;BME280;49121;38.932;-9.018;2023-05-03T11:13:16;111992.50;;;-145.11;32.67
63033;BME280;49121;38.932;-9.018;2023-05-03T11:15:17;111992.50;;;-145.11;31.91